sensor_id;sensor_type;location;lat;lon;timestamp;pressure;altitude;pressure_sealevel;temperature;humidity
64628;BME280;59036;50.960;0.314;2022-08-19T00:01:28;99700.83;;;16.61;77.03
64628;BME280;59036;50.960;0.314;2022-08-19T00:03:57;99702.95;;;16.73;78.04
64628;BME280;59036;50.960;0.314;2022-08-19T00:06:24;99703.45;;;17.11;77.84
64628;BME280;59036;50.960;0.314;2022-08-19T00:08:52;99704.84;;;15.95;79.69
64628;BME280;59036;50.960;0.314;2022-08-19T00:11:20;99702.29;;;15.98;80.27
64628;BME280;59036;50.960;0.314;2022-08-19T00:13:47;99701.21;;;16.15;79.86
64628;BME280;59036;50.960;0.314;2022-08-19T00:16:14;99700.42;;;16.70;77.73
64628;BME280;59036;50.960;0.314;2022-08-19T00:18:42;99703.82;;;16.17;80.17
64628;BME280;59036;50.960;0.314;2022-08-19T00:21:09;99699.83;;;16.21;79.66
64628;BME280;59036;50.960;0.314;2022-08-19T00:23:36;99698.13;;;15.94;80.87
64628;BME280;59036;50.960;0.314;2022-08-19T00:26:04;99693.78;;;15.67;81.98
64628;BME280;59036;50.960;0.314;2022-08-19T00:28:31;99694.09;;;15.76;83.10
64628;BME280;59036;50.960;0.314;2022-08-19T00:30:59;99688.13;;;17.09;78.06
64628;BME280;59036;50.960;0.314;2022-08-19T00:33:26;99693.48;;;16.70;79.79
64628;BME280;59036;50.960;0.314;2022-08-19T00:35:55;99694.18;;;16.43;78.92
64628;BME280;59036;50.960;0.314;2022-08-19T00:38:22;99695.67;;;16.67;78.40
64628;BME280;59036;50.960;0.314;2022-08-19T00:40:49;99700.82;;;17.00;76.32
64628;BME280;59036;50.960;0.314;2022-08-19T00:43:19;99703.85;;;16.80;76.72
64628;BME280;59036;50.960;0.314;2022-08-19T00:45:47;99701.91;;;18.44;71.60
64628;BME280;59036;50.960;0.314;2022-08-19T00:48:15;99701.26;;;18.45;71.82
64628;BME280;59036;50.960;0.314;2022-08-19T00:50:44;99700.09;;;18.50;72.32
64628;BME280;59036;50.960;0.314;2022-08-19T00:53:14;99702.55;;;17.13;75.87
64628;BME280;59036;50.960;0.314;2022-08-19T00:55:45;99695.42;;;18.14;72.09
64628;BME280;59036;50.960;0.314;2022-08-19T00:58:15;99696.99;;;18.16;71.86
64628;BME280;59036;50.960;0.314;2022-08-19T01:00:43;99698.50;;;18.21;71.72
64628;BME280;59036;50.960;0.314;2022-08-19T01:03:13;99700.55;;;18.36;70.84
64628;BME280;59036;50.960;0.314;2022-08-19T01:05:42;99699.85;;;17.67;73.73
64628;BME280;59036;50.960;0.314;2022-08-19T01:08:10;99696.27;;;17.58;74.22
64628;BME280;59036;50.960;0.314;2022-08-19T01:10:41;99693.81;;;17.67;73.94
64628;BME280;59036;50.960;0.314;2022-08-19T01:13:10;99696.30;;;17.13;75.50
64628;BME280;59036;50.960;0.314;2022-08-19T01:15:43;99696.43;;;17.52;74.99
64628;BME280;59036;50.960;0.314;2022-08-19T01:18:14;99691.97;;;17.00;76.41
64628;BME280;59036;50.960;0.314;2022-08-19T01:20:43;99692.48;;;16.45;78.85
64628;BME280;59036;50.960;0.314;2022-08-19T01:23:11;99695.32;;;16.67;77.47
64628;BME280;59036;50.960;0.314;2022-08-19T01:25:43;99698.74;;;17.00;76.88
64628;BME280;59036;50.960;0.314;2022-08-19T01:28:16;99701.04;;;17.60;75.00
64628;BME280;59036;50.960;0.314;2022-08-19T01:30:46;99704.90;;;18.29;72.60
64628;BME280;59036;50.960;0.314;2022-08-19T01:33:14;99701.94;;;18.76;71.51
64628;BME280;59036;50.960;0.314;2022-08-19T01:35:41;99694.90;;;18.95;71.23
64628;BME280;59036;50.960;0.314;2022-08-19T01:38:18;99685.15;;;18.31;72.81
64628;BME280;59036;50.960;0.314;2022-08-19T01:40:46;99686.11;;;17.76;75.31
64628;BME280;59036;50.960;0.314;2022-08-19T01:43:14;99687.32;;;18.13;75.64
64628;BME280;59036;50.960;0.314;2022-08-19T01:45:52;99686.34;;;17.54;75.48
64628;BME280;59036;50.960;0.314;2022-08-19T01:48:20;99683.66;;;18.21;73.30
64628;BME280;59036;50.960;0.314;2022-08-19T01:50:46;99681.94;;;18.43;73.76
64628;BME280;59036;50.960;0.314;2022-08-19T01:53:14;99683.93;;;17.96;74.72
64628;BME280;59036;50.960;0.314;2022-08-19T01:55:43;99680.63;;;18.44;73.24
64628;BME280;59036;50.960;0.314;2022-08-19T01:58:13;99687.79;;;17.97;73.73
64628;BME280;59036;50.960;0.314;2022-08-19T02:00:42;99687.21;;;18.06;73.48
64628;BME280;59036;50.960;0.314;2022-08-19T02:03:10;99683.73;;;18.87;70.80
64628;BME280;59036;50.960;0.314;2022-08-19T02:05:37;99685.74;;;18.97;71.16
64628;BME280;59036;50.960;0.314;2022-08-19T02:08:05;99684.34;;;18.99;70.19
64628;BME280;59036;50.960;0.314;2022-08-19T02:10:32;99680.27;;;19.67;68.66
64628;BME280;59036;50.960;0.314;2022-08-19T02:12:59;99681.73;;;19.10;69.89
64628;BME280;59036;50.960;0.314;2022-08-19T02:15:26;99683.41;;;19.27;70.09
64628;BME280;59036;50.960;0.314;2022-08-19T02:17:53;99685.43;;;18.36;73.37
64628;BME280;59036;50.960;0.314;2022-08-19T02:20:20;99687.76;;;18.12;73.81
64628;BME280;59036;50.960;0.314;2022-08-19T02:22:46;99687.49;;;18.79;71.82
64628;BME280;59036;50.960;0.314;2022-08-19T02:25:14;99687.21;;;17.95;74.52
64628;BME280;59036;50.960;0.314;2022-08-19T02:27:42;99689.11;;;17.85;75.09
64628;BME280;59036;50.960;0.314;2022-08-19T02:30:13;99686.00;;;17.57;75.99
64628;BME280;59036;50.960;0.314;2022-08-19T02:32:40;99687.27;;;17.99;73.84
64628;BME280;59036;50.960;0.314;2022-08-19T02:35:08;99685.22;;;18.63;72.45
64628;BME280;59036;50.960;0.314;2022-08-19T02:37:35;99690.65;;;19.15;70.11
64628;BME280;59036;50.960;0.314;2022-08-19T02:40:03;99692.69;;;18.59;72.14
64628;BME280;59036;50.960;0.314;2022-08-19T02:42:30;99690.97;;;18.70;70.89
64628;BME280;59036;50.960;0.314;2022-08-19T02:44:57;99693.47;;;18.88;70.88
64628;BME280;59036;50.960;0.314;2022-08-19T02:47:24;99687.77;;;19.31;68.55
64628;BME280;59036;50.960;0.314;2022-08-19T02:49:51;99689.90;;;19.21;69.25
64628;BME280;59036;50.960;0.314;2022-08-19T02:52:18;99690.46;;;18.77;72.06
64628;BME280;59036;50.960;0.314;2022-08-19T02:54:45;99695.58;;;17.62;77.32
64628;BME280;59036;50.960;0.314;2022-08-19T02:57:12;99691.38;;;17.94;76.50
64628;BME280;59036;50.960;0.314;2022-08-19T02:59:39;99689.85;;;18.09;75.95
64628;BME280;59036;50.960;0.314;2022-08-19T03:02:06;99689.43;;;17.70;76.51
64628;BME280;59036;50.960;0.314;2022-08-19T03:04:33;99693.96;;;18.04;76.69
64628;BME280;59036;50.960;0.314;2022-08-19T03:07:00;99692.97;;;18.69;73.97
64628;BME280;59036;50.960;0.314;2022-08-19T03:09:28;99691.16;;;17.62;76.20
64628;BME280;59036;50.960;0.314;2022-08-19T03:11:55;99692.41;;;18.06;75.53
64628;BME280;59036;50.960;0.314;2022-08-19T03:14:22;99691.70;;;18.09;75.53
64628;BME280;59036;50.960;0.314;2022-08-19T03:16:51;99689.10;;;18.54;74.05
64628;BME280;59036;50.960;0.314;2022-08-19T03:19:19;99689.97;;;17.84;75.58
64628;BME280;59036;50.960;0.314;2022-08-19T03:21:47;99691.20;;;17.31;77.31
64628;BME280;59036;50.960;0.314;2022-08-19T03:24:15;99688.43;;;18.50;73.38
64628;BME280;59036;50.960;0.314;2022-08-19T03:26:46;99688.48;;;17.26;77.17
64628;BME280;59036;50.960;0.314;2022-08-19T03:29:13;99687.64;;;17.92;75.88
64628;BME280;59036;50.960;0.314;2022-08-19T03:31:43;99681.43;;;16.89;79.08
64628;BME280;59036;50.960;0.314;2022-08-19T03:34:11;99678.20;;;17.59;77.20
64628;BME280;59036;50.960;0.314;2022-08-19T03:36:39;99678.28;;;17.30;77.65
64628;BME280;59036;50.960;0.314;2022-08-19T03:39:06;99677.46;;;18.24;74.48
64628;BME280;59036;50.960;0.314;2022-08-19T03:41:37;99678.98;;;17.98;75.21
64628;BME280;59036;50.960;0.314;2022-08-19T03:44:05;99680.00;;;18.48;73.25
64628;BME280;59036;50.960;0.314;2022-08-19T03:46:33;99681.03;;;18.54;73.92
64628;BME280;59036;50.960;0.314;2022-08-19T03:49:03;99684.57;;;17.58;76.58
64628;BME280;59036;50.960;0.314;2022-08-19T03:51:32;99686.56;;;17.83;76.03
64628;BME280;59036;50.960;0.314;2022-08-19T03:54:02;99692.55;;;17.01;78.49
64628;BME280;59036;50.960;0.314;2022-08-19T03:56:30;99693.07;;;17.38;78.40
64628;BME280;59036;50.960;0.314;2022-08-19T03:58:58;99693.58;;;16.66;80.62
64628;BME280;59036;50.960;0.314;2022-08-19T04:01:27;99689.75;;;17.02;79.70
64628;BME280;59036;50.960;0.314;2022-08-19T04:03:56;99689.13;;;17.05;79.52
64628;BME280;59036;50.960;0.314;2022-08-19T04:06:27;99693.06;;;16.30;80.91
64628;BME280;59036;50.960;0.314;2022-08-19T04:08:56;99689.89;;;16.98;79.35
64628;BME280;59036;50.960;0.314;2022-08-19T04:11:25;99689.24;;;17.74;76.03
64628;BME280;59036;50.960;0.314;2022-08-19T04:13:54;99688.75;;;16.29;82.08
64628;BME280;59036;50.960;0.314;2022-08-19T04:16:25;99686.78;;;16.75;80.49
64628;BME280;59036;50.960;0.314;2022-08-19T04:18:52;99683.23;;;17.01;79.96
64628;BME280;59036;50.960;0.314;2022-08-19T04:21:24;99680.90;;;16.66;80.59
64628;BME280;59036;50.960;0.314;2022-08-19T04:23:51;99678.75;;;16.95;79.65
64628;BME280;59036;50.960;0.314;2022-08-19T04:26:22;99682.79;;;17.37;79.02
64628;BME280;59036;50.960;0.314;2022-08-19T04:28:50;99686.66;;;16.48;80.75
64628;BME280;59036;50.960;0.314;2022-08-19T04:31:20;99687.48;;;15.91;84.37
64628;BME280;59036;50.960;0.314;2022-08-19T04:33:47;99688.69;;;15.42;85.28
64628;BME280;59036;50.960;0.314;2022-08-19T04:36:17;99691.21;;;16.83;81.20
64628;BME280;59036;50.960;0.314;2022-08-19T04:38:44;99696.62;;;16.72;80.26
64628;BME280;59036;50.960;0.314;2022-08-19T04:41:12;99698.63;;;16.03;84.07
64628;BME280;59036;50.960;0.314;2022-08-19T04:43:39;99698.68;;;16.44;81.86
64628;BME280;59036;50.960;0.314;2022-08-19T04:46:07;99698.94;;;17.17;79.46
64628;BME280;59036;50.960;0.314;2022-08-19T04:48:35;99697.47;;;16.59;81.33
64628;BME280;59036;50.960;0.314;2022-08-19T04:51:06;99693.08;;;15.96;83.49
64628;BME280;59036;50.960;0.314;2022-08-19T04:53:36;99693.06;;;16.55;80.86
64628;BME280;59036;50.960;0.314;2022-08-19T04:56:06;99693.81;;;16.53;81.34
64628;BME280;59036;50.960;0.314;2022-08-19T04:58:34;99698.59;;;15.87;84.38
64628;BME280;59036;50.960;0.314;2022-08-19T05:01:01;99694.31;;;16.52;81.50
64628;BME280;59036;50.960;0.314;2022-08-19T05:03:29;99697.18;;;16.87;80.36
64628;BME280;59036;50.960;0.314;2022-08-19T05:05:57;99699.24;;;16.64;80.89
64628;BME280;59036;50.960;0.314;2022-08-19T05:08:24;99700.54;;;16.34;82.56
64628;BME280;59036;50.960;0.314;2022-08-19T05:10:51;99703.15;;;16.09;82.68
64628;BME280;59036;50.960;0.314;2022-08-19T05:13:19;99707.88;;;16.21;83.07
64628;BME280;59036;50.960;0.314;2022-08-19T05:15:54;99708.55;;;15.43;86.35
64628;BME280;59036;50.960;0.314;2022-08-19T05:18:21;99713.21;;;16.39;82.86
64628;BME280;59036;50.960;0.314;2022-08-19T05:20:48;99712.95;;;16.63;82.10
64628;BME280;59036;50.960;0.314;2022-08-19T05:23:15;99715.27;;;16.41;81.97
64628;BME280;59036;50.960;0.314;2022-08-19T05:25:42;99723.41;;;15.88;84.82
64628;BME280;59036;50.960;0.314;2022-08-19T05:28:10;99724.60;;;16.91;81.68
64628;BME280;59036;50.960;0.314;2022-08-19T05:30:37;99727.46;;;16.17;83.21
64628;BME280;59036;50.960;0.314;2022-08-19T05:33:04;99730.10;;;16.42;81.50
64628;BME280;59036;50.960;0.314;2022-08-19T05:35:31;99733.05;;;17.69;77.40
64628;BME280;59036;50.960;0.314;2022-08-19T05:37:58;99733.58;;;16.88;79.63
64628;BME280;59036;50.960;0.314;2022-08-19T05:40:25;99735.91;;;16.32;81.78
64628;BME280;59036;50.960;0.314;2022-08-19T05:42:52;99734.40;;;16.32;82.14
64628;BME280;59036;50.960;0.314;2022-08-19T05:45:19;99736.91;;;17.15;80.77
64628;BME280;59036;50.960;0.314;2022-08-19T05:47:46;99738.48;;;15.85;84.64
64628;BME280;59036;50.960;0.314;2022-08-19T05:50:13;99736.89;;;15.71;84.87
64628;BME280;59036;50.960;0.314;2022-08-19T05:52:40;99733.74;;;16.01;84.22
64628;BME280;59036;50.960;0.314;2022-08-19T05:55:08;99731.16;;;16.56;80.34
64628;BME280;59036;50.960;0.314;2022-08-19T05:57:35;99728.25;;;17.10;78.95
64628;BME280;59036;50.960;0.314;2022-08-19T06:00:04;99725.51;;;16.95;79.93
64628;BME280;59036;50.960;0.314;2022-08-19T06:02:31;99731.50;;;16.09;82.81
64628;BME280;59036;50.960;0.314;2022-08-19T06:04:58;99729.00;;;17.31;80.00
64628;BME280;59036;50.960;0.314;2022-08-19T06:07:25;99724.90;;;17.67;76.58
64628;BME280;59036;50.960;0.314;2022-08-19T06:09:52;99734.11;;;17.60;77.11
64628;BME280;59036;50.960;0.314;2022-08-19T06:12:19;99730.19;;;17.06;78.60
64628;BME280;59036;50.960;0.314;2022-08-19T06:14:46;99736.72;;;17.53;77.47
64628;BME280;59036;50.960;0.314;2022-08-19T06:17:13;99731.70;;;17.11;78.91
64628;BME280;59036;50.960;0.314;2022-08-19T06:19:40;99731.40;;;15.95;82.11
64628;BME280;59036;50.960;0.314;2022-08-19T06:22:07;99732.93;;;16.66;81.66
64628;BME280;59036;50.960;0.314;2022-08-19T06:24:35;99732.75;;;17.78;76.50
64628;BME280;59036;50.960;0.314;2022-08-19T06:27:04;99736.66;;;16.34;80.50
64628;BME280;59036;50.960;0.314;2022-08-19T06:29:31;99736.42;;;16.29;82.08
64628;BME280;59036;50.960;0.314;2022-08-19T06:32:00;99733.57;;;16.70;80.48
64628;BME280;59036;50.960;0.314;2022-08-19T06:34:30;99733.54;;;15.84;83.03
64628;BME280;59036;50.960;0.314;2022-08-19T06:36:59;99735.73;;;16.47;82.07
64628;BME280;59036;50.960;0.314;2022-08-19T06:39:29;99734.73;;;17.20;79.01
64628;BME280;59036;50.960;0.314;2022-08-19T06:41:59;99734.61;;;17.47;76.49
64628;BME280;59036;50.960;0.314;2022-08-19T06:44:29;99735.43;;;18.02;75.16
64628;BME280;59036;50.960;0.314;2022-08-19T06:46:56;99736.48;;;17.72;75.36
64628;BME280;59036;50.960;0.314;2022-08-19T06:49:24;99745.75;;;17.30;77.80
64628;BME280;59036;50.960;0.314;2022-08-19T06:51:52;99745.04;;;17.58;76.18
64628;BME280;59036;50.960;0.314;2022-08-19T06:54:19;99743.56;;;16.53;79.48
64628;BME280;59036;50.960;0.314;2022-08-19T06:56:46;99744.90;;;17.05;78.37
64628;BME280;59036;50.960;0.314;2022-08-19T06:59:16;99750.80;;;17.37;77.28
64628;BME280;59036;50.960;0.314;2022-08-19T07:01:44;99752.21;;;17.66;76.06
64628;BME280;59036;50.960;0.314;2022-08-19T07:04:14;99754.05;;;16.61;78.76
64628;BME280;59036;50.960;0.314;2022-08-19T07:06:41;99755.38;;;16.77;79.84
64628;BME280;59036;50.960;0.314;2022-08-19T07:09:11;99752.31;;;17.13;79.11
64628;BME280;59036;50.960;0.314;2022-08-19T07:11:44;99753.78;;;16.44;81.07
64628;BME280;59036;50.960;0.314;2022-08-19T07:14:11;99756.75;;;17.70;76.39
64628;BME280;59036;50.960;0.314;2022-08-19T07:16:37;99755.22;;;17.73;76.02
64628;BME280;59036;50.960;0.314;2022-08-19T07:19:04;99761.62;;;18.05;75.59
64628;BME280;59036;50.960;0.314;2022-08-19T07:21:31;99763.50;;;17.83;76.82
64628;BME280;59036;50.960;0.314;2022-08-19T07:23:59;99759.00;;;17.67;75.75
64628;BME280;59036;50.960;0.314;2022-08-19T07:26:28;99765.52;;;17.76;75.76
64628;BME280;59036;50.960;0.314;2022-08-19T07:28:56;99771.83;;;16.68;78.67
64628;BME280;59036;50.960;0.314;2022-08-19T07:31:25;99771.99;;;17.54;77.47
64628;BME280;59036;50.960;0.314;2022-08-19T07:33:54;99770.17;;;17.14;78.55
64628;BME280;59036;50.960;0.314;2022-08-19T07:36:24;99767.14;;;17.40;77.50
64628;BME280;59036;50.960;0.314;2022-08-19T07:38:52;99768.76;;;18.11;74.63
64628;BME280;59036;50.960;0.314;2022-08-19T07:41:23;99769.21;;;17.83;75.04
64628;BME280;59036;50.960;0.314;2022-08-19T07:43:52;99767.92;;;18.06;73.45
64628;BME280;59036;50.960;0.314;2022-08-19T07:46:19;99769.51;;;17.69;73.44
64628;BME280;59036;50.960;0.314;2022-08-19T07:48:47;99759.31;;;17.81;73.35
64628;BME280;59036;50.960;0.314;2022-08-19T07:51:17;99760.36;;;18.75;70.20
64628;BME280;59036;50.960;0.314;2022-08-19T07:53:45;99763.32;;;17.63;72.39
64628;BME280;59036;50.960;0.314;2022-08-19T07:56:13;99765.56;;;18.55;71.62
64628;BME280;59036;50.960;0.314;2022-08-19T07:58:43;99763.94;;;18.26;72.15
64628;BME280;59036;50.960;0.314;2022-08-19T08:01:13;99770.35;;;18.88;68.71
64628;BME280;59036;50.960;0.314;2022-08-19T08:03:41;99775.93;;;18.47;70.11
64628;BME280;59036;50.960;0.314;2022-08-19T08:06:09;99781.02;;;19.26;67.58
64628;BME280;59036;50.960;0.314;2022-08-19T08:08:35;99781.08;;;20.15;64.72
64628;BME280;59036;50.960;0.314;2022-08-19T08:11:03;99784.15;;;19.30;67.29
64628;BME280;59036;50.960;0.314;2022-08-19T08:13:31;99787.97;;;18.92;68.61
64628;BME280;59036;50.960;0.314;2022-08-19T08:15:59;99790.52;;;19.28;67.45
64628;BME280;59036;50.960;0.314;2022-08-19T08:18:26;99795.15;;;17.75;72.06
64628;BME280;59036;50.960;0.314;2022-08-19T08:20:55;99792.46;;;17.68;72.16
64628;BME280;59036;50.960;0.314;2022-08-19T08:23:23;99787.51;;;18.78;69.00
64628;BME280;59036;50.960;0.314;2022-08-19T08:25:51;99784.60;;;18.98;68.45
64628;BME280;59036;50.960;0.314;2022-08-19T08:28:19;99785.95;;;18.57;69.40
64628;BME280;59036;50.960;0.314;2022-08-19T08:30:48;99784.09;;;17.95;71.60
64628;BME280;59036;50.960;0.314;2022-08-19T08:33:18;99781.92;;;18.48;70.74
64628;BME280;59036;50.960;0.314;2022-08-19T08:35:46;99776.45;;;18.32;71.18
64628;BME280;59036;50.960;0.314;2022-08-19T08:38:13;99780.85;;;18.93;70.76
64628;BME280;59036;50.960;0.314;2022-08-19T08:40:44;99781.97;;;19.66;65.33
64628;BME280;59036;50.960;0.314;2022-08-19T08:43:27;99784.60;;;19.38;65.61
64628;BME280;59036;50.960;0.314;2022-08-19T08:46:00;99784.26;;;19.06;66.68
64628;BME280;59036;50.960;0.314;2022-08-19T08:48:36;99785.56;;;19.28;66.90
64628;BME280;59036;50.960;0.314;2022-08-19T08:51:08;99795.37;;;18.93;68.48
64628;BME280;59036;50.960;0.314;2022-08-19T08:53:36;99785.96;;;19.86;64.60
64628;BME280;59036;50.960;0.314;2022-08-19T08:56:06;99782.81;;;20.23;64.52
64628;BME280;59036;50.960;0.314;2022-08-19T08:58:43;99784.70;;;20.30;63.98
64628;BME280;59036;50.960;0.314;2022-08-19T09:01:12;99781.80;;;19.81;64.39
64628;BME280;59036;50.960;0.314;2022-08-19T09:03:42;99779.42;;;20.93;63.90
64628;BME280;59036;50.960;0.314;2022-08-19T09:06:18;99781.47;;;19.65;65.43
64628;BME280;59036;50.960;0.314;2022-08-19T09:09:03;99774.41;;;20.89;64.64
64628;BME280;59036;50.960;0.314;2022-08-19T09:11:40;99776.81;;;20.88;64.31
64628;BME280;59036;50.960;0.314;2022-08-19T09:14:17;99782.57;;;20.30;64.04
64628;BME280;59036;50.960;0.314;2022-08-19T09:16:46;99780.82;;;20.28;64.04
64628;BME280;59036;50.960;0.314;2022-08-19T09:19:14;99785.21;;;19.57;66.44
64628;BME280;59036;50.960;0.314;2022-08-19T09:21:41;99783.67;;;20.42;65.12
64628;BME280;59036;50.960;0.314;2022-08-19T09:24:08;99784.33;;;19.61;64.45
64628;BME280;59036;50.960;0.314;2022-08-19T09:26:35;99783.54;;;20.96;61.93
64628;BME280;59036;50.960;0.314;2022-08-19T09:29:02;99782.59;;;21.00;61.43
64628;BME280;59036;50.960;0.314;2022-08-19T09:31:30;99787.55;;;19.71;64.12
64628;BME280;59036;50.960;0.314;2022-08-19T09:33:57;99789.38;;;19.62;63.19
64628;BME280;59036;50.960;0.314;2022-08-19T09:36:27;99787.72;;;19.96;63.36
64628;BME280;59036;50.960;0.314;2022-08-19T09:38:55;99789.89;;;18.97;65.78
64628;BME280;59036;50.960;0.314;2022-08-19T09:41:24;99785.54;;;20.50;62.36
64628;BME280;59036;50.960;0.314;2022-08-19T09:43:53;99781.37;;;19.83;63.47
64628;BME280;59036;50.960;0.314;2022-08-19T09:46:22;99779.47;;;19.87;62.92
64628;BME280;59036;50.960;0.314;2022-08-19T09:48:50;99779.18;;;20.04;63.18
64628;BME280;59036;50.960;0.314;2022-08-19T09:51:20;99776.71;;;20.57;62.45
64628;BME280;59036;50.960;0.314;2022-08-19T09:53:49;99780.41;;;20.23;62.24
64628;BME280;59036;50.960;0.314;2022-08-19T09:56:18;99782.86;;;19.59;63.26
64628;BME280;59036;50.960;0.314;2022-08-19T09:58:46;99783.48;;;19.67;63.81
64628;BME280;59036;50.960;0.314;2022-08-19T10:01:20;99783.77;;;19.32;65.67
64628;BME280;59036;50.960;0.314;2022-08-19T10:03:49;99780.15;;;20.58;62.11
64628;BME280;59036;50.960;0.314;2022-08-19T10:06:17;99783.85;;;19.67;63.71
64628;BME280;59036;50.960;0.314;2022-08-19T10:08:45;99792.01;;;20.28;64.85
64628;BME280;59036;50.960;0.314;2022-08-19T10:11:13;99794.71;;;19.51;68.03
64628;BME280;59036;50.960;0.314;2022-08-19T10:13:40;99794.14;;;19.39;68.74
64628;BME280;59036;50.960;0.314;2022-08-19T10:16:09;99798.38;;;18.68;72.64
64628;BME280;59036;50.960;0.314;2022-08-19T10:18:37;99797.45;;;19.37;71.20
64628;BME280;59036;50.960;0.314;2022-08-19T10:21:07;99800.60;;;18.82;71.75
64628;BME280;59036;50.960;0.314;2022-08-19T10:23:35;99799.75;;;18.26;74.20
64628;BME280;59036;50.960;0.314;2022-08-19T10:26:02;99800.69;;;18.97;72.26
64628;BME280;59036;50.960;0.314;2022-08-19T10:28:29;99796.09;;;19.49;72.13
64628;BME280;59036;50.960;0.314;2022-08-19T10:30:56;99801.56;;;19.01;72.80
64628;BME280;59036;50.960;0.314;2022-08-19T10:33:23;99802.75;;;19.22;72.55
64628;BME280;59036;50.960;0.314;2022-08-19T10:36:00;99797.69;;;19.14;73.03
64628;BME280;59036;50.960;0.314;2022-08-19T10:38:27;99794.85;;;19.46;70.95
64628;BME280;59036;50.960;0.314;2022-08-19T10:40:54;99795.20;;;19.64;70.63
64628;BME280;59036;50.960;0.314;2022-08-19T10:43:21;99799.63;;;19.09;72.45
64628;BME280;59036;50.960;0.314;2022-08-19T10:45:52;99800.40;;;17.88;75.44
64628;BME280;59036;50.960;0.314;2022-08-19T10:48:19;99799.85;;;18.99;73.39
64628;BME280;59036;50.960;0.314;2022-08-19T10:50:46;99796.06;;;18.16;73.51
64628;BME280;59036;50.960;0.314;2022-08-19T10:53:13;99802.13;;;18.58;73.29
64628;BME280;59036;50.960;0.314;2022-08-19T10:55:40;99803.28;;;18.06;75.65
64628;BME280;59036;50.960;0.314;2022-08-19T10:58:11;99803.02;;;18.56;72.94
64628;BME280;59036;50.960;0.314;2022-08-19T11:00:40;99799.30;;;18.69;71.25
64628;BME280;59036;50.960;0.314;2022-08-19T11:03:07;99799.98;;;19.18;69.96
64628;BME280;59036;50.960;0.314;2022-08-19T11:05:35;99800.37;;;19.07;70.58
64628;BME280;59036;50.960;0.314;2022-08-19T11:08:03;99798.43;;;19.14;70.29
64628;BME280;59036;50.960;0.314;2022-08-19T11:10:30;99803.84;;;19.34;68.35
64628;BME280;59036;50.960;0.314;2022-08-19T11:12:57;99800.85;;;19.54;67.93
64628;BME280;59036;50.960;0.314;2022-08-19T11:15:24;99798.33;;;19.07;69.54
64628;BME280;59036;50.960;0.314;2022-08-19T11:17:51;99800.61;;;19.18;69.95
64628;BME280;59036;50.960;0.314;2022-08-19T11:20:19;99793.48;;;18.89;70.38
64628;BME280;59036;50.960;0.314;2022-08-19T11:22:45;99794.62;;;19.38;68.47
64628;BME280;59036;50.960;0.314;2022-08-19T11:25:12;99792.60;;;19.22;68.46
64628;BME280;59036;50.960;0.314;2022-08-19T11:27:40;99799.44;;;19.00;68.95
64628;BME280;59036;50.960;0.314;2022-08-19T11:30:08;99799.18;;;18.81;70.30
64628;BME280;59036;50.960;0.314;2022-08-19T11:32:35;99801.98;;;18.04;73.09
64628;BME280;59036;50.960;0.314;2022-08-19T11:35:03;99802.37;;;18.60;71.46
64628;BME280;59036;50.960;0.314;2022-08-19T11:37:30;99804.10;;;18.16;72.26
64628;BME280;59036;50.960;0.314;2022-08-19T11:39:57;99803.79;;;18.55;71.13
64628;BME280;59036;50.960;0.314;2022-08-19T11:42:24;99810.17;;;19.12;69.22
64628;BME280;59036;50.960;0.314;2022-08-19T11:44:51;99810.62;;;18.32;71.17
64628;BME280;59036;50.960;0.314;2022-08-19T11:47:19;99810.05;;;18.81;69.56
64628;BME280;59036;50.960;0.314;2022-08-19T11:49:47;99815.75;;;18.93;69.38
64628;BME280;59036;50.960;0.314;2022-08-19T11:52:14;99811.81;;;18.90;69.88
64628;BME280;59036;50.960;0.314;2022-08-19T11:54:42;99807.27;;;18.91;69.55
64628;BME280;59036;50.960;0.314;2022-08-19T11:57:09;99810.73;;;18.67;69.68
64628;BME280;59036;50.960;0.314;2022-08-19T11:59:36;99809.70;;;18.76;69.76
64628;BME280;59036;50.960;0.314;2022-08-19T12:02:03;99812.10;;;18.29;70.65
64628;BME280;59036;50.960;0.314;2022-08-19T12:04:30;99816.60;;;18.75;69.34
64628;BME280;59036;50.960;0.314;2022-08-19T12:06:57;99817.38;;;18.65;70.84
64628;BME280;59036;50.960;0.314;2022-08-19T12:09:24;99818.00;;;18.21;72.46
64628;BME280;59036;50.960;0.314;2022-08-19T12:11:51;99816.91;;;18.42;72.27
64628;BME280;59036;50.960;0.314;2022-08-19T12:14:18;99818.03;;;19.30;69.87
64628;BME280;59036;50.960;0.314;2022-08-19T12:16:45;99810.18;;;18.77;70.31
64628;BME280;59036;50.960;0.314;2022-08-19T12:19:13;99819.31;;;18.42;72.96
64628;BME280;59036;50.960;0.314;2022-08-19T12:21:40;99818.21;;;18.37;73.00
64628;BME280;59036;50.960;0.314;2022-08-19T12:24:07;99810.66;;;18.14;74.15
64628;BME280;59036;50.960;0.314;2022-08-19T12:26:35;99823.37;;;17.98;75.57
64628;BME280;59036;50.960;0.314;2022-08-19T12:29:03;99824.75;;;18.41;72.99
64628;BME280;59036;50.960;0.314;2022-08-19T12:31:30;99816.55;;;18.64;74.08
64628;BME280;59036;50.960;0.314;2022-08-19T12:33:57;99819.79;;;18.34;75.35
64628;BME280;59036;50.960;0.314;2022-08-19T12:36:25;99821.51;;;17.66;76.83
64628;BME280;59036;50.960;0.314;2022-08-19T12:38:52;99832.96;;;17.09;78.72
64628;BME280;59036;50.960;0.314;2022-08-19T12:41:20;99837.75;;;16.88;78.67
64628;BME280;59036;50.960;0.314;2022-08-19T12:43:47;99833.92;;;17.07;77.71
64628;BME280;59036;50.960;0.314;2022-08-19T12:46:14;99833.54;;;16.86;77.39
64628;BME280;59036;50.960;0.314;2022-08-19T12:48:41;99837.76;;;16.99;77.75
64628;BME280;59036;50.960;0.314;2022-08-19T12:51:10;99837.29;;;17.87;74.78
64628;BME280;59036;50.960;0.314;2022-08-19T12:53:37;99837.18;;;17.29;74.02
64628;BME280;59036;50.960;0.314;2022-08-19T12:56:05;99832.84;;;17.28;73.15
64628;BME280;59036;50.960;0.314;2022-08-19T12:58:32;99829.56;;;17.74;72.71
64628;BME280;59036;50.960;0.314;2022-08-19T13:00:59;99831.87;;;16.94;74.67
64628;BME280;59036;50.960;0.314;2022-08-19T13:03:27;99828.78;;;17.51;73.50
64628;BME280;59036;50.960;0.314;2022-08-19T13:05:55;99830.68;;;17.12;72.03